createdAt,value
2023-02-06T00:00:48.782Z,4.97
2023-02-06T00:03:17.543Z,4.94
2023-02-06T00:05:45.580Z,4.35
2023-02-06T00:08:12.464Z,4.65
2023-02-06T00:10:39.403Z,4.22
2023-02-06T00:13:06.722Z,4.02
2023-02-06T00:15:33.621Z,4.41
2023-02-06T00:18:00.480Z,4.58
2023-02-06T00:20:27.437Z,4.84
2023-02-06T00:22:53.999Z,4.80
2023-02-06T00:25:21.004Z,5.05
2023-02-06T00:27:47.794Z,5.33
2023-02-06T00:30:15.306Z,4.74
2023-02-06T00:32:42.779Z,5.47
2023-02-06T00:35:09.416Z,5.64
2023-02-06T00:37:35.937Z,5.58
2023-02-06T00:40:02.462Z,4.84
2023-02-06T00:42:29.930Z,4.90
2023-02-06T00:44:56.536Z,4.55
2023-02-06T00:47:23.424Z,4.46
2023-02-06T00:49:50.014Z,4.79
2023-02-06T00:52:16.998Z,4.84
2023-02-06T00:54:44.105Z,4.99
2023-02-06T00:57:12.378Z,4.74
2023-02-06T00:59:39.345Z,5.21
2023-02-06T01:02:05.993Z,5.24
2023-02-06T01:04:32.564Z,5.44
2023-02-06T01:07:00.390Z,5.46
2023-02-06T01:09:27.304Z,5.37
2023-02-06T01:11:54.066Z,5.23
2023-02-06T01:14:25.209Z,4.82
2023-02-06T01:16:51.973Z,4.84
2023-02-06T01:19:19.623Z,5.02
2023-02-06T01:21:46.492Z,4.93
2023-02-06T01:24:13.344Z,5.03
2023-02-06T01:26:39.935Z,4.83
2023-02-06T01:29:06.843Z,4.37
2023-02-06T01:31:33.663Z,4.80
2023-02-06T01:34:00.958Z,4.46
2023-02-06T01:36:27.836Z,4.62
2023-02-06T01:38:54.308Z,4.98
2023-02-06T01:41:23.848Z,5.11
2023-02-06T01:44:16.838Z,5.15
2023-02-06T01:46:45.443Z,5.13
2023-02-06T01:49:16.678Z,5.13
2023-02-06T01:51:43.799Z,5.03
2023-02-06T01:54:11.576Z,5.05
2023-02-06T01:56:44.521Z,4.87
2023-02-06T01:59:12.447Z,4.12
2023-02-06T02:01:39.340Z,4.56
2023-02-06T02:04:10.601Z,4.91
2023-02-06T02:06:40.530Z,4.91
2023-02-06T02:09:07.498Z,4.86
2023-02-06T02:11:35.747Z,4.94
2023-02-06T02:14:03.904Z,4.79
2023-02-06T02:16:49.774Z,4.52
2023-02-06T02:19:16.482Z,4.48
2023-02-06T02:22:15.570Z,4.00
2023-02-06T02:24:45.456Z,4.51
2023-02-06T02:27:39.786Z,4.55
2023-02-06T02:30:07.631Z,4.65
2023-02-06T02:32:49.732Z,4.21
2023-02-06T02:35:16.292Z,3.94
2023-02-06T02:37:49.083Z,4.62
2023-02-06T02:40:21.826Z,4.17
2023-02-06T02:43:01.576Z,4.32
2023-02-06T02:45:46.897Z,4.53
2023-02-06T02:48:28.553Z,4.12
2023-02-06T02:50:56.279Z,4.10
2023-02-06T02:53:23.838Z,3.37
2023-02-06T02:55:50.333Z,3.52
2023-02-06T02:58:19.788Z,3.46
2023-02-06T03:00:51.409Z,3.47
2023-02-06T03:03:22.142Z,3.36
2023-02-06T03:06:27.099Z,3.89
2023-02-06T03:08:54.008Z,3.77
2023-02-06T03:11:21.844Z,4.36
2023-02-06T03:13:58.701Z,3.68
2023-02-06T03:16:29.147Z,4.12
2023-02-06T03:18:58.439Z,3.73
2023-02-06T03:21:25.978Z,4.34
2023-02-06T03:23:54.989Z,3.87
2023-02-06T03:26:23.969Z,4.34
2023-02-06T03:28:53.375Z,4.19
2023-02-06T03:31:24.656Z,4.04
2023-02-06T03:34:23.652Z,4.02
2023-02-06T03:36:52.390Z,4.36
2023-02-06T03:39:19.632Z,4.04
2023-02-06T03:41:46.988Z,3.95
2023-02-06T03:44:16.433Z,4.08
2023-02-06T03:46:44.574Z,3.61
2023-02-06T03:49:12.973Z,3.46
2023-02-06T03:51:43.921Z,3.96
2023-02-06T03:54:12.137Z,3.97
2023-02-06T03:56:52.637Z,3.46
2023-02-06T03:59:20.787Z,3.27
2023-02-06T04:01:49.592Z,3.16
2023-02-06T04:04:20.773Z,3.80
2023-02-06T04:06:47.902Z,4.15
2023-02-06T04:09:14.830Z,4.21
2023-02-06T04:11:41.512Z,4.29
2023-02-06T04:14:08.040Z,4.20
2023-02-06T04:16:34.919Z,3.86
2023-02-06T04:19:01.523Z,3.59
2023-02-06T04:21:29.040Z,3.38
2023-02-06T04:23:55.859Z,3.49
2023-02-06T04:26:22.926Z,3.91
2023-02-06T04:28:49.480Z,3.64
2023-02-06T04:31:17.615Z,4.09
2023-02-06T04:33:44.885Z,4.33
2023-02-06T04:36:11.567Z,3.92
2023-02-06T04:38:39.137Z,4.03
2023-02-06T04:41:07.280Z,4.02
2023-02-06T04:43:34.410Z,4.09
2023-02-06T04:46:01.145Z,4.39
2023-02-06T04:48:28.211Z,4.16
2023-02-06T04:50:55.009Z,4.40
2023-02-06T04:53:21.674Z,4.60
2023-02-06T04:55:49.111Z,4.37
2023-02-06T04:58:18.207Z,4.79
2023-02-06T05:00:45.045Z,3.93
2023-02-06T05:03:12.625Z,4.37
2023-02-06T05:05:41.860Z,4.61
2023-02-06T05:08:09.094Z,4.78
2023-02-06T05:10:36.060Z,4.83
2023-02-06T05:13:02.850Z,4.94
2023-02-06T05:15:29.466Z,4.78
2023-02-06T05:17:56.126Z,4.33
2023-02-06T05:20:22.700Z,4.66
2023-02-06T05:22:50.489Z,4.97
2023-02-06T05:25:17.655Z,4.78
2023-02-06T05:27:44.390Z,4.71
2023-02-06T05:30:11.863Z,4.41
2023-02-06T05:32:40.542Z,4.60
2023-02-06T05:35:07.570Z,4.87
2023-02-06T05:37:34.444Z,4.86
2023-02-06T05:40:01.148Z,4.89
2023-02-06T05:42:28.015Z,4.70
2023-02-06T05:44:55.004Z,4.73
2023-02-06T05:47:22.038Z,4.75
2023-02-06T05:49:48.939Z,4.64
2023-02-06T05:52:16.191Z,4.57
2023-02-06T05:54:43.563Z,4.30
2023-02-06T05:57:10.645Z,4.55
2023-02-06T05:59:37.473Z,4.33
2023-02-06T06:02:04.687Z,4.09
2023-02-06T06:04:32.508Z,4.05
2023-02-06T06:07:00.368Z,4.19
2023-02-06T06:09:30.060Z,4.10
2023-02-06T06:11:57.111Z,4.12
2023-02-06T06:14:24.087Z,4.20
2023-02-06T06:16:51.057Z,4.21
2023-02-06T06:19:17.758Z,4.12
2023-02-06T06:21:45.118Z,4.27
2023-02-06T06:24:12.214Z,3.63
2023-02-06T06:26:40.778Z,4.04
2023-02-06T06:29:08.174Z,4.15
2023-02-06T06:31:36.681Z,4.21
2023-02-06T06:34:04.101Z,4.13
2023-02-06T06:36:33.704Z,4.03
2023-02-06T06:39:01.022Z,3.87
2023-02-06T06:41:27.762Z,3.78
2023-02-06T06:43:58.329Z,3.80
2023-02-06T06:46:30.912Z,3.73
2023-02-06T06:48:57.356Z,3.60
2023-02-06T06:51:23.798Z,3.65
2023-02-06T06:53:50.916Z,3.68
2023-02-06T06:56:17.697Z,3.69
2023-02-06T06:58:47.274Z,3.61
2023-02-06T07:01:14.974Z,3.73
2023-02-06T07:03:44.766Z,3.84
2023-02-06T07:06:11.929Z,3.68
2023-02-06T07:08:44.525Z,3.73
2023-02-06T07:11:11.948Z,3.76
2023-02-06T07:13:38.735Z,3.78
2023-02-06T07:16:06.011Z,3.84
2023-02-06T07:18:32.888Z,3.63
2023-02-06T07:20:59.961Z,3.41
2023-02-06T07:23:26.739Z,3.38
2023-02-06T07:25:53.188Z,3.93
2023-02-06T07:28:19.694Z,4.08
2023-02-06T07:30:46.524Z,4.41
2023-02-06T07:33:13.142Z,4.34
2023-02-06T07:35:42.278Z,4.37
2023-02-06T07:38:08.614Z,4.46
2023-02-06T07:40:44.577Z,4.50
2023-02-06T07:43:14.787Z,4.63
2023-02-06T07:45:43.937Z,4.62
2023-02-06T07:48:12.359Z,4.48
2023-02-06T07:50:41.705Z,3.95
2023-02-06T07:53:08.518Z,4.34
2023-02-06T07:55:36.323Z,4.54
2023-02-06T07:58:03.461Z,4.98
2023-02-06T08:00:33.629Z,4.67
2023-02-06T08:03:02.590Z,4.55
2023-02-06T08:05:32.498Z,4.63
2023-02-06T08:07:59.316Z,4.63
2023-02-06T08:10:26.317Z,4.39
2023-02-06T08:12:53.008Z,4.57
2023-02-06T08:15:20.380Z,4.52
2023-02-06T08:17:48.124Z,4.24
2023-02-06T08:20:14.703Z,4.73
2023-02-06T08:22:41.432Z,5.24
2023-02-06T08:25:08.127Z,4.63
2023-02-06T08:27:35.442Z,4.30
2023-02-06T08:30:04.290Z,3.64
2023-02-06T08:32:37.113Z,4.06
2023-02-06T08:35:04.357Z,3.89
2023-02-06T08:37:34.546Z,4.70
2023-02-06T08:40:02.540Z,4.88
2023-02-06T08:42:30.712Z,4.64
2023-02-06T08:44:57.224Z,4.61
2023-02-06T08:47:24.305Z,5.13
2023-02-06T08:49:51.719Z,5.37
2023-02-06T08:52:18.378Z,4.45
2023-02-06T08:54:45.634Z,4.15
2023-02-06T08:57:13.153Z,3.89
2023-02-06T08:59:40.250Z,4.21
2023-02-06T09:02:10.118Z,4.74
2023-02-06T09:04:37.834Z,4.81
2023-02-06T09:07:06.065Z,4.59
2023-02-06T09:09:32.709Z,4.85
2023-02-06T09:12:03.979Z,5.27
2023-02-06T09:14:32.245Z,4.78
2023-02-06T09:16:58.878Z,5.23
2023-02-06T09:19:28.557Z,4.59
2023-02-06T09:21:57.055Z,4.16
2023-02-06T09:24:25.475Z,4.47
2023-02-06T09:26:59.820Z,4.33
2023-02-06T09:29:31.013Z,5.16
2023-02-06T09:31:58.967Z,4.30
2023-02-06T09:34:28.325Z,5.62
2023-02-06T09:36:57.504Z,5.14
2023-02-06T09:39:25.591Z,5.01
2023-02-06T09:41:55.832Z,5.39
2023-02-06T09:44:29.704Z,4.87
2023-02-06T09:47:06.390Z,4.57
2023-02-06T09:49:39.638Z,4.55
2023-02-06T09:52:09.101Z,4.37
2023-02-06T09:54:49.767Z,4.55
2023-02-06T09:57:40.197Z,4.05
2023-02-06T10:00:20.781Z,5.10
2023-02-06T10:02:47.399Z,4.78
2023-02-06T10:05:32.838Z,4.91
2023-02-06T10:08:08.704Z,4.90
2023-02-06T10:10:39.933Z,4.81
2023-02-06T10:13:16.501Z,5.09
2023-02-06T10:15:46.227Z,5.07
2023-02-06T10:18:16.800Z,5.26
2023-02-06T10:20:46.715Z,5.84
2023-02-06T10:23:26.531Z,5.79
2023-02-06T10:26:17.487Z,5.31
2023-02-06T10:28:49.615Z,5.71
2023-02-06T10:31:26.112Z,5.79
2023-02-06T10:34:08.171Z,5.57
2023-02-06T10:36:34.846Z,6.06
2023-02-06T10:39:13.504Z,6.16
2023-02-06T10:41:39.873Z,6.00
2023-02-06T10:44:25.932Z,5.80
2023-02-06T10:46:54.444Z,6.46
2023-02-06T10:49:24.205Z,6.68
2023-02-06T10:51:58.922Z,7.02
2023-02-06T10:54:27.240Z,6.10
2023-02-06T10:56:55.791Z,6.55
2023-02-06T10:59:26.732Z,6.57
2023-02-06T11:02:00.468Z,6.87
2023-02-06T11:04:29.888Z,6.92
2023-02-06T11:07:02.134Z,6.69
2023-02-06T11:09:28.794Z,6.92
2023-02-06T11:11:58.393Z,6.90
2023-02-06T11:14:40.698Z,6.72
2023-02-06T11:17:07.939Z,6.52
2023-02-06T11:19:38.982Z,6.69
2023-02-06T11:22:18.937Z,5.82
2023-02-06T11:24:59.818Z,5.67
2023-02-06T11:27:30.998Z,6.97
2023-02-06T11:30:03.274Z,6.87
2023-02-06T11:32:38.019Z,7.47
2023-02-06T11:35:07.821Z,7.36
2023-02-06T11:37:40.203Z,7.43
2023-02-06T11:40:19.029Z,6.01
2023-02-06T11:42:52.790Z,5.33
2023-02-06T11:45:29.719Z,6.38
2023-02-06T11:47:56.978Z,6.55
2023-02-06T11:50:28.487Z,6.53
2023-02-06T11:52:59.935Z,5.89
2023-02-06T11:55:32.034Z,6.29
2023-02-06T11:58:07.260Z,6.01
2023-02-06T12:00:36.028Z,6.60
2023-02-06T12:03:05.651Z,5.79
2023-02-06T12:05:40.750Z,6.32
2023-02-06T12:08:18.637Z,6.13
2023-02-06T12:11:01.255Z,5.57
2023-02-06T12:13:33.876Z,6.06
2023-02-06T12:16:06.473Z,6.74
2023-02-06T12:18:40.908Z,6.48
2023-02-06T12:21:11.942Z,5.11
2023-02-06T12:23:46.015Z,6.34
2023-02-06T12:26:19.236Z,5.99
2023-02-06T12:29:05.618Z,6.43
2023-02-06T12:31:38.973Z,6.52
2023-02-06T12:34:28.407Z,6.43
2023-02-06T12:37:16.632Z,5.74
2023-02-06T12:39:48.194Z,5.75
2023-02-06T12:42:34.420Z,6.15
2023-02-06T12:45:02.240Z,6.64
2023-02-06T12:47:43.778Z,7.18
2023-02-06T12:50:16.320Z,7.48
2023-02-06T12:52:56.900Z,7.13
2023-02-06T12:55:40.620Z,6.41
2023-02-06T12:58:22.333Z,6.00
2023-02-06T13:01:02.527Z,6.60
2023-02-06T13:03:29.728Z,7.62
2023-02-06T13:06:03.119Z,7.43
2023-02-06T13:08:49.374Z,7.50
2023-02-06T13:11:31.412Z,7.13
2023-02-06T13:14:02.219Z,8.91
2023-02-06T13:16:44.494Z,8.96
2023-02-06T13:19:23.305Z,8.69
2023-02-06T13:22:19.650Z,8.19
2023-02-06T13:24:49.200Z,8.16
2023-02-06T13:27:41.007Z,7.88
2023-02-06T13:30:28.996Z,7.90
2023-02-06T13:33:08.942Z,7.93
2023-02-06T13:35:35.794Z,8.11
2023-02-06T13:38:25.531Z,7.64
2023-02-06T13:41:14.326Z,7.66
2023-02-06T13:44:01.251Z,7.89
2023-02-06T13:46:40.031Z,7.29
2023-02-06T13:49:14.024Z,8.19
2023-02-06T13:51:47.568Z,8.49
2023-02-06T13:54:23.444Z,8.58
2023-02-06T13:57:08.315Z,8.99
2023-02-06T13:59:36.391Z,8.86
2023-02-06T14:02:11.999Z,8.88
2023-02-06T14:04:39.664Z,9.35
2023-02-06T14:07:06.255Z,9.21
2023-02-06T14:09:51.772Z,9.35
2023-02-06T14:12:35.361Z,9.53
2023-02-06T14:15:22.420Z,9.35
2023-02-06T14:18:00.429Z,8.94
2023-02-06T14:20:33.222Z,9.11
2023-02-06T14:23:18.308Z,8.90
2023-02-06T14:25:44.806Z,9.44
2023-02-06T14:28:22.427Z,9.30
2023-02-06T14:31:16.888Z,9.46
2023-02-06T14:33:52.471Z,8.80
2023-02-06T14:36:19.033Z,8.52
2023-02-06T14:39:05.183Z,8.73
2023-02-06T14:41:33.220Z,9.10
2023-02-06T14:44:00.299Z,8.93
2023-02-06T14:46:29.474Z,8.50
2023-02-06T14:48:58.305Z,8.99
2023-02-06T14:51:41.731Z,8.91
2023-02-06T14:54:27.184Z,9.18
2023-02-06T14:57:04.724Z,9.28
2023-02-06T14:59:35.462Z,9.41
2023-02-06T15:02:12.194Z,9.09
2023-02-06T15:04:47.431Z,9.25
2023-02-06T15:07:25.133Z,9.33
2023-02-06T15:09:56.359Z,9.17
2023-02-06T15:12:25.140Z,9.08
2023-02-06T15:14:53.067Z,9.11
2023-02-06T15:17:21.889Z,9.10
2023-02-06T15:19:51.493Z,9.14
2023-02-06T15:22:27.146Z,8.90
2023-02-06T15:24:59.962Z,9.17
2023-02-06T15:27:31.010Z,8.94
2023-02-06T15:29:58.975Z,9.00
2023-02-06T15:32:39.142Z,8.86
2023-02-06T15:35:20.079Z,8.82
2023-02-06T15:37:46.930Z,8.60
2023-02-06T15:40:18.871Z,8.59
2023-02-06T15:42:48.951Z,8.48
2023-02-06T15:45:18.265Z,8.29
2023-02-06T15:47:46.424Z,8.24
2023-02-06T15:50:17.603Z,8.20
2023-02-06T15:52:48.180Z,8.04
2023-02-06T15:55:27.302Z,8.02
2023-02-06T15:57:55.673Z,8.01
2023-02-06T16:00:24.387Z,7.97
2023-02-06T16:02:52.060Z,7.84
2023-02-06T16:05:37.447Z,7.96
2023-02-06T16:08:10.622Z,7.52
2023-02-06T16:10:38.821Z,7.49
2023-02-06T16:13:16.948Z,7.24
2023-02-06T16:16:01.923Z,7.24
2023-02-06T16:18:37.671Z,7.23
2023-02-06T16:21:37.189Z,7.21
2023-02-06T16:24:16.616Z,7.15
2023-02-06T16:26:47.143Z,6.95
2023-02-06T16:29:29.601Z,7.03
2023-02-06T16:32:00.798Z,6.90
2023-02-06T16:34:41.381Z,6.70
2023-02-06T16:37:16.115Z,6.64
2023-02-06T16:39:45.623Z,6.52
2023-02-06T16:42:16.873Z,6.40
2023-02-06T16:44:47.246Z,6.48
2023-02-06T16:47:20.457Z,6.47
2023-02-06T16:49:51.284Z,6.37
2023-02-06T16:52:20.880Z,6.14
2023-02-06T16:54:47.970Z,6.20
2023-02-06T16:57:19.511Z,6.01
2023-02-06T16:59:46.240Z,5.90
2023-02-06T17:02:13.787Z,5.87
2023-02-06T17:04:41.049Z,5.76
2023-02-06T17:07:16.317Z,5.92
2023-02-06T17:09:43.906Z,5.97
2023-02-06T17:12:15.156Z,5.85
2023-02-06T17:14:42.878Z,5.90
2023-02-06T17:17:10.410Z,5.83
2023-02-06T17:19:39.820Z,5.81
2023-02-06T17:22:08.413Z,5.69
2023-02-06T17:24:36.507Z,5.82
2023-02-06T17:27:05.069Z,5.70
2023-02-06T17:29:31.950Z,5.60
2023-02-06T17:31:59.852Z,5.71
2023-02-06T17:34:27.683Z,5.62
2023-02-06T17:36:55.620Z,5.67
2023-02-06T17:39:22.526Z,5.54
2023-02-06T17:41:49.415Z,5.58
2023-02-06T17:44:18.070Z,5.31
2023-02-06T17:46:45.609Z,5.35
2023-02-06T17:49:12.764Z,5.33
2023-02-06T17:51:41.324Z,5.32
2023-02-06T17:54:08.255Z,5.51
2023-02-06T17:56:36.516Z,5.61
2023-02-06T17:59:05.704Z,5.64
2023-02-06T18:01:34.672Z,5.40
2023-02-06T18:04:01.580Z,5.38
2023-02-06T18:06:33.348Z,5.35
2023-02-06T18:09:04.815Z,5.41
2023-02-06T18:11:32.915Z,5.27
2023-02-06T18:13:59.530Z,5.21
2023-02-06T18:16:28.141Z,5.23
2023-02-06T18:18:55.349Z,5.23
2023-02-06T18:21:27.063Z,5.14
2023-02-06T18:23:56.129Z,4.83
2023-02-06T18:26:24.395Z,5.23
2023-02-06T18:28:54.420Z,5.20
2023-02-06T18:31:27.424Z,5.17
2023-02-06T18:33:56.595Z,5.20
2023-02-06T18:36:25.191Z,5.14
2023-02-06T18:38:54.447Z,4.96
2023-02-06T18:41:42.867Z,5.02
2023-02-06T18:44:14.417Z,5.07
2023-02-06T18:46:42.023Z,5.02
2023-02-06T18:49:10.542Z,4.89
2023-02-06T18:51:40.979Z,4.91
2023-02-06T18:54:08.015Z,4.77
2023-02-06T18:56:35.302Z,4.70
2023-02-06T18:59:03.998Z,4.74
2023-02-06T19:01:33.010Z,4.67
2023-02-06T19:04:02.150Z,4.75
2023-02-06T19:06:32.484Z,4.72
2023-02-06T19:08:59.598Z,4.78
2023-02-06T19:11:26.751Z,4.83
2023-02-06T19:13:59.562Z,4.69
2023-02-06T19:16:35.736Z,4.61
2023-02-06T19:19:05.090Z,4.65
2023-02-06T19:21:34.920Z,4.61
2023-02-06T19:24:02.407Z,4.63
2023-02-06T19:26:29.439Z,4.52
2023-02-06T19:28:56.674Z,4.47
2023-02-06T19:31:27.887Z,4.43
2023-02-06T19:33:56.472Z,4.46
2023-02-06T19:36:27.096Z,4.30
2023-02-06T19:38:55.594Z,4.43
2023-02-06T19:41:23.906Z,4.40
2023-02-06T19:43:52.745Z,4.34
2023-02-06T19:46:21.467Z,4.32
2023-02-06T19:48:50.628Z,4.30
2023-02-06T19:51:21.774Z,4.14
2023-02-06T19:53:51.167Z,4.07
2023-02-06T19:56:31.104Z,4.25
2023-02-06T19:59:02.858Z,4.23
2023-02-06T20:01:30.653Z,4.14
2023-02-06T20:03:58.292Z,4.14
2023-02-06T20:06:25.707Z,4.33
2023-02-06T20:08:53.329Z,3.99
2023-02-06T20:11:24.168Z,4.04
2023-02-06T20:14:03.841Z,4.00
2023-02-06T20:16:39.651Z,4.25
2023-02-06T20:19:16.401Z,4.11
2023-02-06T20:21:48.342Z,4.11
2023-02-06T20:24:18.696Z,4.02
2023-02-06T20:26:55.551Z,4.01
2023-02-06T20:29:32.896Z,3.86
2023-02-06T20:32:02.214Z,3.89
2023-02-06T20:34:29.751Z,3.96
2023-02-06T20:36:56.250Z,3.92
2023-02-06T20:39:24.758Z,3.88
2023-02-06T20:41:51.696Z,3.92
2023-02-06T20:44:19.335Z,3.86
2023-02-06T20:46:46.899Z,3.80
2023-02-06T20:49:15.173Z,3.54
2023-02-06T20:51:42.008Z,3.75
2023-02-06T20:54:11.451Z,3.75
2023-02-06T20:56:39.803Z,3.48
2023-02-06T20:59:07.030Z,3.35
2023-02-06T21:01:34.884Z,3.22
2023-02-06T21:04:04.508Z,3.27
2023-02-06T21:06:31.856Z,3.28
2023-02-06T21:09:01.431Z,3.25
2023-02-06T21:11:30.285Z,3.10
2023-02-06T21:13:57.869Z,3.20
2023-02-06T21:16:24.893Z,3.19
2023-02-06T21:18:52.400Z,3.25
2023-02-06T21:21:19.136Z,3.17
2023-02-06T21:23:49.784Z,3.25
2023-02-06T21:26:18.324Z,3.24
2023-02-06T21:28:46.438Z,3.14
2023-02-06T21:31:15.674Z,3.20
2023-02-06T21:33:45.939Z,3.22
2023-02-06T21:36:15.533Z,3.14
2023-02-06T21:38:43.273Z,2.97
2023-02-06T21:41:20.451Z,2.92
2023-02-06T21:43:47.133Z,2.76
2023-02-06T21:46:14.061Z,2.67
2023-02-06T21:48:43.176Z,2.60
2023-02-06T21:51:11.440Z,2.73
2023-02-06T21:53:38.968Z,3.15
2023-02-06T21:56:11.664Z,3.31
2023-02-06T21:58:39.692Z,3.29
2023-02-06T22:01:09.085Z,3.14
2023-02-06T22:03:35.903Z,3.09
2023-02-06T22:06:08.765Z,3.27
2023-02-06T22:08:40.721Z,3.12
2023-02-06T22:11:33.377Z,3.64
2023-02-06T22:14:01.655Z,3.72
2023-02-06T22:16:29.855Z,3.72
2023-02-06T22:18:56.930Z,3.78
2023-02-06T22:21:24.858Z,3.64
2023-02-06T22:23:51.823Z,3.54
2023-02-06T22:26:21.022Z,3.55
2023-02-06T22:28:47.903Z,3.40
2023-02-06T22:31:17.255Z,3.33
2023-02-06T22:33:44.519Z,3.36
2023-02-06T22:36:13.228Z,3.38
2023-02-06T22:38:41.000Z,3.22
2023-02-06T22:41:09.430Z,3.18
2023-02-06T22:43:37.229Z,3.34
2023-02-06T22:46:04.250Z,3.34
2023-02-06T22:48:31.320Z,3.44
2023-02-06T22:51:05.501Z,3.15
2023-02-06T22:53:35.219Z,3.16
2023-02-06T22:56:26.554Z,3.15
2023-02-06T22:58:53.576Z,3.11
2023-02-06T23:01:22.187Z,3.07
2023-02-06T23:03:51.406Z,3.00
2023-02-06T23:06:17.936Z,3.01
2023-02-06T23:08:44.573Z,3.15
2023-02-06T23:11:12.190Z,2.87
2023-02-06T23:13:39.486Z,2.88
2023-02-06T23:16:06.518Z,2.84
2023-02-06T23:18:33.944Z,2.86
2023-02-06T23:21:03.302Z,3.25
2023-02-06T23:23:30.479Z,2.94
2023-02-06T23:25:57.807Z,2.79
2023-02-06T23:28:25.486Z,2.79
2023-02-06T23:30:53.849Z,3.13
2023-02-06T23:33:20.483Z,3.12
2023-02-06T23:35:47.456Z,3.26
2023-02-06T23:38:14.029Z,3.25
2023-02-06T23:40:40.562Z,3.05
2023-02-06T23:43:07.156Z,3.00
2023-02-06T23:45:33.976Z,3.07
2023-02-06T23:48:00.701Z,3.06
2023-02-06T23:50:27.594Z,3.01
2023-02-06T23:52:54.622Z,2.69
2023-02-06T23:55:21.592Z,2.88
2023-02-06T23:57:48.197Z,2.85
